Time;durP1;ratioP1;P1;durP2;ratioP2;P2;SDS_P1;SDS_P2;PMS_P1;PMS_P2;Temp;Humidity;BMP_temperature;BMP_pressure;BME280_temperature;BME280_humidity;BME280_pressure;Samples;Min_cycle;Max_cycle;Signal;HPM_P1;HPM_P2
2023/11/12 00:01:21;;;;;;;0.80;0.80;;;;;;;4.94;100.00;95771.48;110202;1244;69352;-64
2023/11/12 00:03:53;;;;;;;0.80;0.70;;;;;;;4.88;100.00;95774.89;110287;1242;60513;-63
2023/11/12 00:06:23;;;;;;;0.50;0.50;;;;;;;4.87;100.00;95771.35;110275;1241;60500;-63
2023/11/12 00:08:53;;;;;;;0.80;0.80;;;;;;;4.83;100.00;95775.95;110274;1241;72252;-63
2023/11/12 00:11:23;;;;;;;0.80;0.80;;;;;;;4.78;100.00;95777.88;110272;1241;69206;-64
2023/11/12 00:13:53;;;;;;;1.20;0.70;;;;;;;4.85;100.00;95779.23;110283;1242;68681;-63
2023/11/12 00:16:24;;;;;;;0.80;0.70;;;;;;;4.81;100.00;95788.53;110332;1241;60503;-64
2023/11/12 00:18:58;;;;;;;0.60;0.60;;;;;;;4.81;100.00;95792.11;110224;1240;60531;-64
2023/11/12 00:21:29;;;;;;;0.90;0.80;;;;;;;4.81;100.00;95797.29;110149;1241;70440;-64
2023/11/12 00:24:02;;;;;;;0.80;0.80;;;;;;;4.80;100.00;95800.35;110249;1244;69252;-64
2023/11/12 00:26:33;;;;;;;0.80;0.80;;;;;;;4.81;100.00;95800.77;110243;1242;69168;-64
2023/11/12 00:29:04;;;;;;;0.70;0.70;;;;;;;4.78;100.00;95804.08;110246;1245;60530;-64
2023/11/12 00:31:36;;;;;;;1.00;0.70;;;;;;;4.75;100.00;95805.70;110271;1240;60477;-64
2023/11/12 00:34:07;;;;;;;1.50;0.80;;;;;;;4.78;100.00;95812.89;110216;1242;72116;-64
2023/11/12 00:36:42;;;;;;;0.60;0.60;;;;;;;4.78;100.00;95815.00;110131;1246;68530;-64
2023/11/12 00:39:13;;;;;;;0.90;0.80;;;;;;;4.77;100.00;95814.17;110236;1241;68342;-63
2023/11/12 00:41:43;;;;;;;;;;;;;;;4.78;100.00;95812.74;110138;1245;60541;-63
2023/11/12 00:44:13;;;;;;;0.90;0.80;;;;;;;4.74;100.00;95815.46;110224;1242;60481;-63
2023/11/12 00:46:46;;;;;;;0.70;0.70;;;;;;;4.74;100.00;95820.66;110259;1241;72598;-63
2023/11/12 00:49:17;;;;;;;0.60;0.60;;;;;;;4.75;100.00;95822.97;110262;1242;69237;-65
2023/11/12 00:51:48;;;;;;;0.50;0.50;;;;;;;4.72;100.00;95821.30;110275;1241;68529;-64
2023/11/12 00:54:20;;;;;;;0.90;0.60;;;;;;;4.69;100.00;95824.32;110234;1243;60489;-64
2023/11/12 00:56:52;;;;;;;0.70;0.70;;;;;;;4.66;100.00;95827.66;110167;1246;60502;-64
2023/11/12 00:59:22;;;;;;;0.60;0.60;;;;;;;4.63;100.00;95831.27;110123;1244;71490;-64
2023/11/12 01:01:56;;;;;;;0.60;0.60;;;;;;;4.61;100.00;95831.45;110131;1246;69424;-64
2023/11/12 01:04:28;;;;;;;0.70;0.70;;;;;;;4.65;100.00;95838.00;110278;1242;68631;-65
2023/11/12 01:07:00;;;;;;;0.70;0.70;;;;;;;4.64;100.00;95842.29;110210;1245;60544;-64
2023/11/12 01:09:31;;;;;;;0.70;0.70;;;;;;;4.63;100.00;95846.83;110117;1245;60451;-64
2023/11/12 01:12:02;;;;;;;0.60;0.60;;;;;;;4.61;100.00;95848.02;110251;1242;72227;-65
2023/11/12 01:14:34;;;;;;;0.60;0.60;;;;;;;4.65;100.00;95848.11;110261;1242;69794;-65
2023/11/12 01:17:05;;;;;;;0.60;0.60;;;;;;;4.62;100.00;95845.86;110256;1242;69115;-65
2023/11/12 01:19:35;;;;;;;0.60;0.60;;;;;;;4.65;100.00;95845.96;110119;1244;60483;-64
2023/11/12 01:22:07;;;;;;;1.00;0.70;;;;;;;4.59;100.00;95849.71;110260;1242;60490;-64
2023/11/12 01:24:39;;;;;;;0.70;0.70;;;;;;;4.59;100.00;95846.74;110214;1242;71785;-64
2023/11/12 01:27:13;;;;;;;0.80;0.80;;;;;;;4.60;100.00;95843.92;110245;1245;68527;-64
2023/11/12 01:29:45;;;;;;;0.70;0.70;;;;;;;4.63;100.00;95846.66;110245;1242;69166;-64
2023/11/12 01:32:14;;;;;;;;;;;;;;;4.62;100.00;95846.69;110248;1240;60544;-65
2023/11/12 01:34:44;;;;;;;0.80;0.80;;;;;;;4.57;100.00;95849.84;110269;1243;60498;-65
2023/11/12 01:37:15;;;;;;;0.60;0.60;;;;;;;4.55;100.00;95847.06;110249;1243;72100;-64
2023/11/12 01:39:51;;;;;;;0.70;0.70;;;;;;;4.58;100.00;95846.66;110185;1244;69445;-65
2023/11/12 01:42:25;;;;;;;1.10;0.70;;;;;;;4.55;100.00;95844.68;110255;1242;69157;-64
2023/11/12 01:44:57;;;;;;;1.00;0.60;;;;;;;4.55;100.00;95848.64;110246;1241;60791;-65
2023/11/12 01:47:27;;;;;;;0.70;0.70;;;;;;;4.54;100.00;95851.80;110290;1242;60485;-65
2023/11/12 01:49:58;;;;;;;0.70;0.70;;;;;;;4.58;100.00;95857.85;110247;1241;72230;-64
2023/11/12 01:52:32;;;;;;;0.70;0.60;;;;;;;4.58;100.00;95860.43;110267;1242;68315;-66
2023/11/12 01:55:06;;;;;;;0.70;0.60;;;;;;;4.59;100.00;95863.66;110153;1245;69759;-65
2023/11/12 01:57:39;;;;;;;0.70;0.70;;;;;;;4.59;100.00;95865.55;110244;1242;60601;-64
2023/11/12 02:00:15;;;;;;;1.80;0.80;;;;;;;4.60;100.00;95866.86;110198;1242;60511;-64
2023/11/12 02:02:52;;;;;;;1.50;0.70;;;;;;;4.57;100.00;95868.50;110139;1243;72213;-64
2023/11/12 02:05:23;;;;;;;0.60;0.60;;;;;;;4.56;100.00;95865.98;110169;1243;69242;-64
2023/11/12 02:08:00;;;;;;;0.60;0.60;;;;;;;4.55;100.00;95865.15;110242;1240;68572;-66
2023/11/12 02:10:39;;;;;;;0.70;0.70;;;;;;;4.58;100.00;95867.52;110200;1241;60553;-63
2023/11/12 02:13:12;;;;;;;1.10;0.80;;;;;;;4.51;100.00;95869.40;110247;1241;60539;-64
2023/11/12 02:15:47;;;;;;;1.20;0.80;;;;;;;4.53;100.00;95871.38;110234;1242;71466;-64
2023/11/12 02:18:18;;;;;;;1.40;0.80;;;;;;;4.59;100.00;95872.67;110141;1241;68693;-65
2023/11/12 02:20:50;;;;;;;0.70;0.70;;;;;;;4.54;100.00;95871.05;110138;1242;69289;-65
2023/11/12 02:23:22;;;;;;;0.60;0.60;;;;;;;4.55;100.00;95871.74;110148;1247;60468;-66
2023/11/12 02:25:57;;;;;;;0.70;0.70;;;;;;;4.61;100.00;95874.42;110120;1244;60527;-65
2023/11/12 02:28:29;;;;;;;0.70;0.70;;;;;;;4.60;100.00;95875.52;110102;1240;71461;-66
2023/11/12 02:31:00;;;;;;;0.60;0.60;;;;;;;4.56;100.00;95878.88;110122;1244;69329;-64
2023/11/12 02:33:32;;;;;;;1.20;0.70;;;;;;;4.56;100.00;95878.88;110132;1243;68522;-63
2023/11/12 02:36:07;;;;;;;0.70;0.70;;;;;;;4.57;100.00;95882.06;110102;1241;60563;-64
2023/11/12 02:38:41;;;;;;;0.90;0.90;;;;;;;4.55;100.00;95881.70;110109;1245;60462;-64
2023/11/12 02:41:11;;;;;;;0.70;0.70;;;;;;;4.61;100.00;95884.77;110259;1241;71666;-64
2023/11/12 02:43:46;;;;;;;0.70;0.70;;;;;;;4.64;100.00;95890.23;110271;1242;69400;-64
2023/11/12 02:46:20;;;;;;;0.70;0.70;;;;;;;4.66;100.00;95889.37;110158;1245;68533;-64
2023/11/12 02:48:56;;;;;;;0.60;0.50;;;;;;;4.68;100.00;95892.58;110108;1241;60566;-64
2023/11/12 02:51:30;;;;;;;0.70;0.70;;;;;;;4.69;100.00;95898.71;110268;1242;60524;-64
2023/11/12 02:54:03;;;;;;;0.80;0.70;;;;;;;4.70;100.00;95901.04;110257;1243;71880;-64
2023/11/12 02:56:37;;;;;;;0.80;0.50;;;;;;;4.66;100.00;95902.86;110358;1241;68510;-65
2023/11/12 02:59:08;;;;;;;1.30;0.90;;;;;;;4.67;100.00;95906.57;110326;1251;69302;-65
2023/11/12 03:01:40;;;;;;;1.30;0.70;;;;;;;4.66;100.00;95912.67;110181;1245;60492;-65
2023/11/12 03:04:12;;;;;;;1.80;1.60;;;;;;;4.70;100.00;95917.06;110162;1244;60498;-64
2023/11/12 03:06:47;;;;;;;4.80;2.60;;;;;;;4.70;100.00;95917.21;110360;1248;72722;-65
2023/11/12 03:09:24;;;;;;;5.50;2.70;;;;;;;4.71;100.00;95924.10;110327;1242;69159;-65
2023/11/12 03:11:58;;;;;;;5.10;2.90;;;;;;;4.64;100.00;95928.50;110304;1241;68652;-64
2023/11/12 03:14:32;;;;;;;5.10;2.40;;;;;;;4.69;100.00;95934.02;110307;1241;60532;-65
2023/11/12 03:17:10;;;;;;;9.80;6.20;;;;;;;4.68;100.00;95938.09;110239;1241;60460;-64
2023/11/12 03:19:49;;;;;;;6.90;3.70;;;;;;;4.61;100.00;95937.52;110236;1241;72223;-65
2023/11/12 03:22:22;;;;;;;6.40;3.40;;;;;;;4.49;100.00;95941.14;110223;1242;68336;-66
2023/11/12 03:24:53;;;;;;;4.70;3.00;;;;;;;4.48;100.00;95938.63;110255;1242;69212;-65
2023/11/12 03:27:26;;;;;;;4.40;2.90;;;;;;;4.53;100.00;95939.36;110328;1242;60500;-65
2023/11/12 03:29:59;;;;;;;3.10;1.80;;;;;;;4.52;100.00;95940.46;110383;1242;60616;-65
2023/11/12 03:32:31;;;;;;;3.70;1.90;;;;;;;4.47;100.00;95943.89;110329;1246;72164;-65
2023/11/12 03:35:02;;;;;;;2.90;1.70;;;;;;;4.44;100.00;95944.15;110365;1242;69274;-65
2023/11/12 03:37:34;;;;;;;3.70;2.10;;;;;;;4.43;100.00;95950.56;110365;1241;69026;-65
2023/11/12 03:40:08;;;;;;;2.00;1.40;;;;;;;4.41;100.00;95953.45;110321;1241;60539;-65
2023/11/12 03:42:40;;;;;;;1.50;1.30;;;;;;;4.42;100.00;95952.89;110291;1241;60509;-65
2023/11/12 03:45:11;;;;;;;2.60;1.70;;;;;;;4.48;100.00;95953.48;110292;1241;72215;-64
2023/11/12 03:47:44;;;;;;;2.10;1.60;;;;;;;4.41;100.00;95957.48;110317;1241;68591;-64
2023/11/12 03:50:16;;;;;;;1.50;1.20;;;;;;;4.34;100.00;95958.60;110273;1241;68535;-65
2023/11/12 03:52:48;;;;;;;1.60;1.20;;;;;;;4.41;100.00;95959.50;110124;1242;60554;-65
2023/11/12 03:55:20;;;;;;;1.60;1.30;;;;;;;4.41;100.00;95960.91;110209;1242;60586;-65
2023/11/12 03:57:52;;;;;;;1.00;1.00;;;;;;;4.36;100.00;95958.69;110212;1242;71619;-64
2023/11/12 04:00:24;;;;;;;1.10;1.00;;;;;;;4.38;100.00;95962.30;110216;1241;69478;-65
2023/11/12 04:02:55;;;;;;;1.20;1.10;;;;;;;4.38;100.00;95960.78;110214;1243;69192;-65
2023/11/12 04:05:26;;;;;;;1.90;1.20;;;;;;;4.39;100.00;95965.71;110111;1242;60554;-65
2023/11/12 04:07:57;;;;;;;1.50;1.20;;;;;;;4.39;100.00;95969.65;110158;1243;60519;-65
2023/11/12 04:10:26;;;;;;;;;;;;;;;4.36;100.00;95966.80;110235;1241;72660;-65
2023/11/12 04:13:02;;;;;;;1.10;1.00;;;;;;;4.41;100.00;95970.02;110099;1244;69451;-66
2023/11/12 04:15:33;;;;;;;1.10;1.00;;;;;;;4.42;100.00;95971.03;110266;1241;68516;-65
2023/11/12 04:18:06;;;;;;;1.10;1.00;;;;;;;4.45;100.00;95979.11;110298;1241;60487;-64
2023/11/12 04:20:38;;;;;;;1.20;1.00;;;;;;;4.46;100.00;95976.73;110261;1241;60552;-65
2023/11/12 04:23:09;;;;;;;1.40;1.10;;;;;;;4.47;100.00;95983.19;110268;1241;72248;-65
2023/11/12 04:25:45;;;;;;;1.20;0.90;;;;;;;4.50;100.00;95986.16;110107;1244;69510;-65
2023/11/12 04:28:17;;;;;;;1.20;0.90;;;;;;;4.51;100.00;95987.80;110213;1241;68533;-64
2023/11/12 04:30:47;;;;;;;1.70;1.20;;;;;;;4.53;100.00;95988.16;110160;1250;60917;-64
2023/11/12 04:33:19;;;;;;;1.10;1.10;;;;;;;4.48;100.00;95986.80;110265;1241;60437;-64
2023/11/12 04:35:54;;;;;;;1.00;0.90;;;;;;;4.46;100.00;95986.55;110285;1240;71304;-64
2023/11/12 04:38:26;;;;;;;1.30;1.20;;;;;;;4.50;100.00;95987.19;110213;1241;68445;-64
2023/11/12 04:40:57;;;;;;;1.30;1.20;;;;;;;4.50;100.00;95988.69;110229;1240;69067;-64
2023/11/12 04:43:27;;;;;;;;;;;;;;;4.47;100.00;95994.27;110202;1241;60475;-64
2023/11/12 04:45:58;;;;;;;1.30;1.20;;;;;;;4.46;100.00;95990.55;110277;1240;60541;-64
2023/11/12 04:48:29;;;;;;;2.20;1.10;;;;;;;4.45;100.00;95995.84;110273;1241;72058;-64
2023/11/12 04:51:02;;;;;;;1.30;1.20;;;;;;;4.45;100.00;96000.83;110260;1241;69253;-64
2023/11/12 04:53:32;;;;;;;1.90;1.40;;;;;;;4.41;100.00;96004.40;110242;1241;69141;-65
2023/11/12 04:56:09;;;;;;;2.20;1.40;;;;;;;4.41;100.00;96006.98;110240;1242;60459;-65
2023/11/12 04:58:39;;;;;;;2.20;1.60;;;;;;;4.47;100.00;96012.73;110207;1241;60489;-65
2023/11/12 05:01:09;;;;;;;1.70;1.50;;;;;;;4.50;100.00;96017.02;110280;1240;72316;-65
2023/11/12 05:03:40;;;;;;;1.70;1.40;;;;;;;4.47;100.00;96019.13;110298;1241;68472;-65
2023/11/12 05:06:12;;;;;;;1.40;1.30;;;;;;;4.49;100.00;96021.25;110204;1249;69510;-65
2023/11/12 05:08:43;;;;;;;1.20;1.10;;;;;;;4.50;100.00;96023.91;110189;1244;60538;-66
2023/11/12 05:11:12;;;;;;;1.90;1.60;;;;;;;4.51;100.00;96024.86;110259;1241;60583;-65
2023/11/12 05:13:43;;;;;;;2.20;1.30;;;;;;;4.52;100.00;96027.71;110340;1242;71439;-65
2023/11/12 05:16:13;;;;;;;2.00;1.60;;;;;;;4.52;100.00;96031.85;110296;1242;69115;-65
2023/11/12 05:18:43;;;;;;;2.20;1.80;;;;;;;4.55;100.00;96039.94;110338;1241;70137;-65
2023/11/12 05:21:13;;;;;;;2.40;1.80;;;;;;;4.55;100.00;96046.84;110194;1242;60492;-66
2023/11/12 05:23:43;;;;;;;1.90;1.60;;;;;;;4.55;100.00;96053.92;110303;1240;60504;-65
2023/11/12 05:26:14;;;;;;;2.50;1.80;;;;;;;4.56;100.00;96060.75;110239;1243;71445;-65
2023/11/12 05:28:44;;;;;;;2.30;1.70;;;;;;;4.57;100.00;96062.74;110344;1242;69300;-65
2023/11/12 05:31:14;;;;;;;;;;;;;;;4.60;100.00;96066.52;110344;1242;69199;-65
2023/11/12 05:33:45;;;;;;;2.00;1.60;;;;;;;4.62;100.00;96072.10;110312;1240;60479;-65
2023/11/12 05:36:15;;;;;;;2.00;1.80;;;;;;;4.62;100.00;96074.14;110325;1241;60473;-66
2023/11/12 05:38:44;;;;;;;;;;;;;;;4.61;100.00;96078.48;110352;1241;71895;-65
2023/11/12 05:41:15;;;;;;;;;;;;;;;4.62;100.00;96087.77;110366;1240;68698;-65
2023/11/12 05:43:46;;;;;;;2.80;2.00;;;;;;;4.62;100.00;96088.48;110360;1241;69281;-66
2023/11/12 05:46:15;;;;;;;2.20;1.80;;;;;;;4.62;100.00;96091.40;110337;1240;60554;-66
2023/11/12 05:48:46;;;;;;;2.10;1.70;;;;;;;4.58;100.00;96091.84;110333;1240;60488;-66
2023/11/12 05:51:16;;;;;;;2.20;1.90;;;;;;;4.60;100.00;96096.38;110338;1242;72714;-65
2023/11/12 05:53:46;;;;;;;1.80;1.40;;;;;;;4.60;100.00;96103.06;110232;1242;69299;-65
2023/11/12 05:56:16;;;;;;;1.80;1.50;;;;;;;4.62;100.00;96113.17;110142;1242;69260;-65
2023/11/12 05:58:45;;;;;;;;;;;;;;;4.59;100.00;96119.39;110238;1240;60497;-66
2023/11/12 06:01:16;;;;;;;2.30;1.60;;;;;;;4.60;100.00;96125.36;110313;1241;60438;-65
2023/11/12 06:03:46;;;;;;;1.90;1.60;;;;;;;4.60;100.00;96129.15;110326;1242;72074;-65
2023/11/12 06:06:15;;;;;;;2.50;1.50;;;;;;;4.62;100.00;96135.73;110284;1241;68510;-65
2023/11/12 06:08:44;;;;;;;1.40;1.30;;;;;;;4.65;100.00;96138.02;110313;1241;68380;-65
2023/11/12 06:11:14;;;;;;;1.30;1.20;;;;;;;4.65;100.00;96139.87;110250;1241;60516;-64
2023/11/12 06:13:44;;;;;;;1.50;1.20;;;;;;;4.67;100.00;96148.04;110255;1240;60467;-66
2023/11/12 06:16:13;;;;;;;1.30;1.10;;;;;;;4.68;100.00;96160.06;110280;1246;72220;-66
2023/11/12 06:18:43;;;;;;;1.60;1.20;;;;;;;4.68;100.00;96168.33;110276;1245;69132;-66
2023/11/12 06:21:12;;;;;;;1.20;1.10;;;;;;;4.67;100.00;96174.42;110176;1249;69856;-66
2023/11/12 06:23:43;;;;;;;2.10;1.20;;;;;;;4.66;100.00;96178.80;110266;1239;60539;-66
2023/11/12 06:26:13;;;;;;;1.60;1.20;;;;;;;4.64;100.00;96187.05;110217;1240;60553;-66
2023/11/12 06:28:43;;;;;;;1.30;1.10;;;;;;;4.60;100.00;96195.06;110268;1240;72093;-66
2023/11/12 06:31:11;;;;;;;1.20;1.00;;;;;;;4.63;100.00;96202.14;110250;1240;69239;-66
2023/11/12 06:33:43;;;;;;;2.10;1.40;;;;;;;4.64;100.00;96202.41;110284;1242;69673;-66
2023/11/12 06:36:16;;;;;;;2.10;1.40;;;;;;;4.54;100.00;96201.84;110265;1241;60608;-66
2023/11/12 06:38:46;;;;;;;1.30;1.10;;;;;;;4.54;100.00;96204.47;110252;1241;60553;-66
2023/11/12 06:41:15;;;;;;;1.60;1.10;;;;;;;4.58;100.00;96211.39;110226;1241;72843;-66
2023/11/12 06:43:45;;;;;;;1.40;1.10;;;;;;;4.53;100.00;96217.12;110177;1241;68512;-66
2023/11/12 06:46:14;;;;;;;1.60;1.00;;;;;;;4.54;100.00;96217.37;110272;1242;69265;-66
2023/11/12 06:48:43;;;;;;;0.80;0.80;;;;;;;4.54;100.00;96223.60;110240;1241;60995;-66
2023/11/12 06:51:31;;;;;;;1.10;0.90;;;;;;;4.55;100.00;96230.89;110234;1241;60481;-66
2023/11/12 06:54:00;;;;;;;0.90;0.80;;;;;;;4.58;100.00;96235.23;110226;1241;72044;-66
2023/11/12 06:56:33;;;;;;;1.20;0.70;;;;;;;4.51;100.00;96243.64;110235;1242;70023;-66
2023/11/12 06:59:03;;;;;;;0.70;0.60;;;;;;;4.55;100.00;96240.64;110227;1240;69021;-65
2023/11/12 07:01:32;;;;;;;0.60;0.60;;;;;;;4.56;100.00;96243.12;110294;1240;60469;-65
2023/11/12 07:04:01;;;;;;;0.90;0.70;;;;;;;4.52;100.00;96246.99;110227;1240;60480;-65
2023/11/12 07:06:30;;;;;;;0.80;0.80;;;;;;;4.48;100.00;96250.04;110235;1242;72756;-65
2023/11/12 07:09:00;;;;;;;0.80;0.80;;;;;;;4.50;100.00;96251.64;110275;1242;67792;-65
2023/11/12 07:11:28;;;;;;;2.50;0.80;;;;;;;4.52;100.00;96257.42;110215;1249;69846;-66
2023/11/12 07:13:58;;;;;;;1.00;0.80;;;;;;;4.49;100.00;96260.86;110267;1249;60511;-65
2023/11/12 07:16:27;;;;;;;0.70;0.70;;;;;;;4.49;100.00;96267.45;110294;1241;60525;-66
2023/11/12 07:18:56;;;;;;;0.90;0.80;;;;;;;4.47;100.00;96270.30;110226;1241;72760;-66
2023/11/12 07:21:25;;;;;;;1.10;0.70;;;;;;;4.50;100.00;96279.23;110204;1241;69147;-65
2023/11/12 07:23:55;;;;;;;0.80;0.80;;;;;;;4.48;100.00;96281.45;110254;1241;69866;-66
2023/11/12 07:26:24;;;;;;;1.50;0.80;;;;;;;4.50;100.00;96287.57;110268;1241;60564;-65
2023/11/12 07:28:54;;;;;;;0.80;0.80;;;;;;;4.47;100.00;96295.48;110217;1241;60508;-65
2023/11/12 07:31:23;;;;;;;0.80;0.80;;;;;;;4.40;100.00;96297.71;110223;1241;72182;-65
2023/11/12 07:33:53;;;;;;;0.70;0.70;;;;;;;4.44;100.00;96293.85;110272;1242;70192;-66
2023/11/12 07:36:22;;;;;;;1.50;0.70;;;;;;;4.43;100.00;96300.96;110238;1240;68413;-65
2023/11/12 07:38:51;;;;;;;0.60;0.60;;;;;;;4.43;100.00;96309.77;110256;1241;60509;-66
2023/11/12 07:41:22;;;;;;;1.00;0.90;;;;;;;4.41;100.00;96314.22;110257;1241;60443;-66
2023/11/12 07:43:51;;;;;;;0.70;0.70;;;;;;;4.36;100.00;96322.79;110268;1241;72235;-67
2023/11/12 07:46:20;;;;;;;1.10;0.70;;;;;;;4.28;100.00;96319.71;110249;1241;69099;-64
2023/11/12 07:48:50;;;;;;;0.90;0.80;;;;;;;4.29;100.00;96316.85;110342;1241;69280;-65
2023/11/12 07:51:19;;;;;;;0.80;0.80;;;;;;;4.32;100.00;96323.43;110284;1241;60913;-64
2023/11/12 07:53:49;;;;;;;0.80;0.70;;;;;;;4.30;100.00;96328.17;110274;1241;60488;-66
2023/11/12 07:56:18;;;;;;;2.10;0.90;;;;;;;4.32;100.00;96330.47;110272;1241;72800;-65
2023/11/12 07:58:48;;;;;;;6.50;5.10;;;;;;;4.23;100.00;96334.67;110290;1241;69140;-64
2023/11/12 08:01:16;;;;;;;2.90;2.10;;;;;;;4.30;100.00;96339.93;110243;1240;69127;-64
2023/11/12 08:03:45;;;;;;;0.90;0.90;;;;;;;4.36;100.00;96343.13;110249;1240;60500;-65
2023/11/12 08:06:15;;;;;;;11.30;7.60;;;;;;;4.35;100.00;96349.61;110293;1242;60837;-65
2023/11/12 08:08:44;;;;;;;4.90;3.20;;;;;;;4.28;100.00;96344.20;110254;1242;72122;-65
2023/11/12 08:11:13;;;;;;;3.10;2.30;;;;;;;4.34;100.00;96343.95;110313;1241;69215;-65
2023/11/12 08:13:42;;;;;;;2.80;2.00;;;;;;;4.29;100.00;96343.98;110258;1244;69830;-65
2023/11/12 08:16:11;;;;;;;2.30;1.40;;;;;;;4.25;100.00;96352.50;110287;1241;60543;-65
2023/11/12 08:18:41;;;;;;;3.20;2.80;;;;;;;4.20;100.00;96360.56;110297;1241;60476;-65
2023/11/12 08:21:12;;;;;;;3.20;2.30;;;;;;;4.19;100.00;96366.18;110258;1241;72768;-65
2023/11/12 08:23:41;;;;;;;2.10;1.50;;;;;;;4.23;100.00;96370.92;110260;1241;68908;-65
2023/11/12 08:26:10;;;;;;;2.20;1.80;;;;;;;4.22;100.00;96375.81;110208;1241;69937;-65
2023/11/12 08:28:39;;;;;;;2.30;1.90;;;;;;;4.24;100.00;96385.15;110249;1240;60536;-65
2023/11/12 08:31:08;;;;;;;1.20;1.10;;;;;;;4.22;100.00;96390.30;110233;1240;60534;-65
2023/11/12 08:33:38;;;;;;;1.50;1.10;;;;;;;4.21;100.00;96395.69;110225;1241;72570;-65
2023/11/12 08:36:09;;;;;;;1.00;0.90;;;;;;;4.23;100.00;96400.40;110218;1240;69033;-65
2023/11/12 08:38:38;;;;;;;0.90;0.90;;;;;;;4.30;100.00;96404.05;110206;1240;68931;-66
2023/11/12 08:41:08;;;;;;;1.50;1.20;;;;;;;4.28;100.00;96407.16;110258;1240;60559;-65
2023/11/12 08:43:37;;;;;;;1.40;1.00;;;;;;;4.32;100.00;96413.42;110214;1241;60479;-65
2023/11/12 08:46:07;;;;;;;1.50;1.10;;;;;;;4.41;100.00;96415.29;110244;1240;72142;-64
2023/11/12 08:48:42;;;;;;;6.50;3.90;;;;;;;4.40;100.00;96420.71;110244;1240;68613;-65
2023/11/12 08:51:12;;;;;;;2.70;1.80;;;;;;;4.45;100.00;96423.14;110227;1242;69277;-65
2023/11/12 08:53:41;;;;;;;4.30;2.00;;;;;;;4.45;100.00;96427.30;110229;1246;60494;-64
2023/11/12 08:56:12;;;;;;;1.80;1.10;;;;;;;4.44;100.00;96429.77;110215;1241;61242;-64
2023/11/12 08:58:41;;;;;;;6.40;3.40;;;;;;;4.48;100.00;96434.19;110259;1242;72285;-64
2023/11/12 09:01:11;;;;;;;5.00;2.90;;;;;;;4.55;100.00;96437.49;110229;1240;68508;-65
2023/11/12 09:03:40;;;;;;;1.40;0.90;;;;;;;4.57;100.00;96440.28;110220;1240;68428;-65
2023/11/12 09:06:10;;;;;;;1.10;0.90;;;;;;;4.62;100.00;96444.33;110243;1242;60491;-64
2023/11/12 09:08:40;;;;;;;6.50;3.70;;;;;;;4.56;100.00;96446.21;110242;1242;60458;-64
2023/11/12 09:11:11;;;;;;;3.40;2.00;;;;;;;4.64;100.00;96451.26;110222;1243;72789;-65
2023/11/12 09:13:45;;;;;;;4.30;2.20;;;;;;;4.65;100.00;96449.98;110247;1242;69222;-65
2023/11/12 09:16:14;;;;;;;2.80;1.70;;;;;;;4.66;100.00;96450.95;110136;1244;69850;-65
2023/11/12 09:18:43;;;;;;;6.90;3.80;;;;;;;4.71;100.00;96452.34;110286;1241;60497;-65
2023/11/12 09:21:12;;;;;;;9.10;4.70;;;;;;;4.75;100.00;96450.88;109920;1241;491305;-65
2023/11/12 09:23:42;;;;;;;5.70;3.40;;;;;;;4.79;100.00;96454.97;110215;1240;72121;-64
2023/11/12 09:26:22;;;;;;;11.70;5.50;;;;;;;4.82;100.00;96455.96;110191;1241;69188;-65
2023/11/12 09:28:51;;;;;;;34.50;17.90;;;;;;;4.87;100.00;96455.61;110217;1241;68417;-65
2023/11/12 09:31:21;;;;;;;20.20;9.90;;;;;;;4.92;100.00;96458.45;110221;1242;60540;-64
2023/11/12 09:33:49;;;;;;;13.80;9.00;;;;;;;4.96;100.00;96459.57;110140;1243;60582;-64
2023/11/12 09:36:19;;;;;;;12.10;6.70;;;;;;;4.98;100.00;96463.21;110238;1241;72192;-64
2023/11/12 09:38:48;;;;;;;9.80;6.10;;;;;;;5.01;100.00;96464.05;110241;1240;69237;-64
2023/11/12 09:41:22;;;;;;;7.30;4.50;;;;;;;5.02;100.00;96465.88;110268;1242;69062;-64
2023/11/12 09:43:54;;;;;;;4.70;3.00;;;;;;;5.03;100.00;96471.15;110205;1242;60465;-65
2023/11/12 09:46:24;;;;;;;2.10;1.20;;;;;;;5.02;100.00;96472.95;110238;1240;60559;-65
2023/11/12 09:48:54;;;;;;;1.10;1.00;;;;;;;4.88;100.00;96479.58;110239;1240;72664;-65
2023/11/12 09:51:24;;;;;;;5.20;2.60;;;;;;;4.81;100.00;96485.69;110251;1240;68664;-64
2023/11/12 09:53:53;;;;;;;2.20;1.40;;;;;;;4.82;100.00;96482.52;110214;1241;69118;-65
2023/11/12 09:56:24;;;;;;;5.70;3.50;;;;;;;4.86;100.00;96491.47;110218;1242;60605;-65
2023/11/12 09:58:54;;;;;;;2.40;1.90;;;;;;;4.79;100.00;96496.52;110215;1242;60494;-65
2023/11/12 10:01:25;;;;;;;;;;;;;;;4.73;100.00;96499.88;110274;1242;71769;-65
2023/11/12 10:03:54;;;;;;;5.00;3.20;;;;;;;4.74;100.00;96503.77;110284;1243;68285;-65
2023/11/12 10:06:25;;;;;;;3.20;2.70;;;;;;;4.75;100.00;96505.43;110312;1240;69273;-65
2023/11/12 10:08:54;;;;;;;6.50;5.80;;;;;;;4.75;100.00;96508.20;110349;1242;60559;-65
2023/11/12 10:11:26;;;;;;;5.40;4.90;;;;;;;4.73;100.00;96511.95;110221;1240;60567;-65
2023/11/12 10:13:56;;;;;;;4.40;4.00;;;;;;;4.79;100.00;96516.04;110225;1241;73268;-66
2023/11/12 10:16:29;;;;;;;;;;;;;;;4.87;100.00;96513.80;110250;1242;69822;-65
2023/11/12 10:19:13;;;;;;;4.20;2.50;;;;;;;4.95;100.00;96516.09;110291;1243;69855;-65
2023/11/12 10:21:53;;;;;;;2.50;2.10;;;;;;;5.03;100.00;96513.65;110257;1240;60477;-65
2023/11/12 10:24:23;;;;;;;;;;;;;;;5.10;100.00;96514.20;110301;1240;60529;-65
2023/11/12 10:26:56;;;;;;;1.90;1.60;;;;;;;5.18;100.00;96515.27;110321;1241;72305;-65
2023/11/12 10:29:27;;;;;;;2.70;1.90;;;;;;;5.26;100.00;96519.60;110193;1240;69897;-65
2023/11/12 10:31:57;;;;;;;2.00;1.70;;;;;;;5.31;100.00;96518.05;110212;1242;68583;-65
2023/11/12 10:34:27;;;;;;;1.90;1.30;;;;;;;5.36;100.00;96524.63;110264;1241;60464;-66
2023/11/12 10:37:19;;;;;;;2.40;1.70;;;;;;;5.38;100.00;96525.02;110259;1240;60547;-64
2023/11/12 10:39:49;;;;;;;3.20;2.50;;;;;;;5.43;100.00;96530.75;110248;1241;72759;-64
2023/11/12 10:42:26;;;;;;;3.00;2.50;;;;;;;5.50;100.00;96533.73;110253;1241;69807;-64
2023/11/12 10:44:57;;;;;;;2.10;1.80;;;;;;;5.59;100.00;96540.74;110272;1244;69750;-65
2023/11/12 10:47:32;;;;;;;4.50;2.70;;;;;;;5.65;100.00;96539.27;110199;1241;60566;-64
2023/11/12 10:50:04;;;;;;;3.00;2.10;;;;;;;5.70;100.00;96539.98;110261;1240;60543;-64
2023/11/12 10:52:36;;;;;;;1.90;1.50;;;;;;;5.72;100.00;96545.20;110280;1241;72011;-65
2023/11/12 10:55:06;;;;;;;2.30;1.90;;;;;;;5.72;100.00;96540.35;110303;1241;69741;-64
2023/11/12 10:57:35;;;;;;;2.20;1.50;;;;;;;5.70;100.00;96546.02;110230;1240;68323;-65
2023/11/12 11:00:10;;;;;;;2.40;2.00;;;;;;;5.71;100.00;96550.97;110201;1240;60547;-65
2023/11/12 11:02:44;;;;;;;1.70;1.20;;;;;;;5.72;100.00;96559.55;110287;1240;60911;-65
2023/11/12 11:05:13;;;;;;;3.40;1.90;;;;;;;5.70;100.00;96563.65;110228;1241;72329;-64
2023/11/12 11:07:48;;;;;;;2.30;1.40;;;;;;;5.69;100.00;96564.59;110234;1240;69176;-64
2023/11/12 11:10:17;;;;;;;1.70;1.50;;;;;;;5.72;100.00;96566.11;110212;1243;69159;-65
2023/11/12 11:12:48;;;;;;;2.00;1.40;;;;;;;5.77;100.00;96565.42;110219;1242;60533;-64
2023/11/12 11:15:52;;;;;;;2.20;1.50;;;;;;;5.81;100.00;96570.34;110255;1243;60882;-66
2023/11/12 11:18:31;;;;;;;3.00;1.70;;;;;;;5.85;100.00;96568.55;110245;1240;72142;-64
2023/11/12 11:21:03;;;;;;;2.00;1.50;;;;;;;5.89;100.00;96573.30;110249;1242;69227;-65
2023/11/12 11:23:55;;;;;;;1.80;1.50;;;;;;;5.88;100.00;96579.94;110260;1249;69691;-64
2023/11/12 11:26:27;;;;;;;2.10;1.60;;;;;;;5.90;100.00;96581.01;110284;1241;60532;-65
2023/11/12 11:29:07;;;;;;;1.60;1.30;;;;;;;5.89;100.00;96586.30;110275;1242;60471;-66
2023/11/12 11:31:46;;;;;;;3.70;1.60;;;;;;;5.90;100.00;96592.79;110275;1242;72170;-66
2023/11/12 11:34:16;;;;;;;2.90;1.60;;;;;;;5.93;100.00;96593.11;110304;1242;68739;-64
2023/11/12 11:37:03;;;;;;;3.70;2.20;;;;;;;5.93;100.00;96597.75;110224;1241;69879;-64
2023/11/12 11:39:32;;;;;;;3.00;2.30;;;;;;;5.95;100.00;96600.95;110314;1242;60479;-64
2023/11/12 11:42:06;;;;;;;4.70;2.50;;;;;;;5.96;100.00;96603.31;110351;1240;60468;-64
2023/11/12 11:44:42;;;;;;;5.20;3.10;;;;;;;5.97;100.00;96605.65;110271;1240;72004;-64
2023/11/12 11:47:19;;;;;;;4.40;2.90;;;;;;;5.97;100.00;96607.36;110237;1240;69843;-64